Dalton, WI (53926)

9:57 AM CST on February 09, 2016 (GMT -0600)
APRSWXNET | | Change Station
CLOSE
Current Station
Personal Weather Station
Location: Cambria, WI
Elevation: 944 ft
Nearby Weather Stations

Elev 944 ft 43.54 °N, 89.11 °W | Updated 27 minutes ago

Overcast
Overcast
11 °F
Feels Like -1 °F
N
8
Wind Variable Wind from West
Gusts 16.0 mph

Today
High -- | Low -- °F
--% Chance of Precip.
Yesterday
High -- | Low -- °F
Precip. -- in
Pressure 29.87 in
Visibility 6.0 miles
Clouds Mostly Cloudy 3500 ft
Overcast 4800 ft
Windchill -1 °F
Dew Point 6 °F
Humidity 78%
Rainfall in
Snow Depth Not available.
7:04 AM 5:18 PM
New Moon, 1% visible
METAR KY50 091456Z AUTO 33015KT 6SM -SN BKN035 OVC048 M12/M16 A2987 RMK AO2
Pressure 29.87 in
Visibility 6.0 miles
Clouds Mostly Cloudy 3500 ft
Overcast 4800 ft
Windchill -1 °F
Dew Point 6 °F
Humidity 78%
Rainfall in
Snow Depth Not available.
7:04 AM 5:18 PM
New Moon, 1% visible
METAR KY50 091456Z AUTO 33015KT 6SM -SN BKN035 OVC048 M12/M16 A2987 RMK AO2

10-Day Weather Forecast

Almanac

Astronomy

Feb. 09, 2016 Rise Set
Actual Time
Civil Twilight
Nautical Twilight
Astronomical Twilight
Moon
Length of Visible Light
Length of Day
Tomorrow will be .
, % of the Moon is Illuminated

Today's Extremes

State Highs State Lows

Community

WunderPhotos

Upload Photos

1,891,628 photos uploaded!

WunderBlog® & News

Nearby

Air Quality

  Air Quality AQ Index Pollutant
Not available.

Snow Depth

Station Depth Elevation

Earthquake Activity

City Distance Mag. Time & Date
Minimum magnitude displayed is 2.5.

Coastal Water Temperatures

Place Temperature

Stations

Nearby Weather Stations

Station Location Temp. Windchill Dew Point Humidity Wind Precip. Elev Updated Type
                   

Watches & Warnings

There are currently no watches in effect.